EST,Max TemperatureF,Mean TemperatureF,Min TemperatureF,Max Dew PointF,MeanDew PointF,Min DewpointF,Max Humidity, Mean Humidity, Min Humidity, Max Sea Level PressureIn, Mean Sea Level PressureIn, Min Sea Level PressureIn, Max VisibilityMiles, Mean VisibilityMiles, Min VisibilityMiles, Max Wind SpeedMPH, Mean Wind SpeedMPH, Max Gust SpeedMPH,PrecipitationIn, CloudCover, Events, WindDirDegrees
2014-2-1,56,43,29,45,34,24,92,62,32,30.25,30.17,30.11,10,5,0,12,4,14,0.01,7,Fog-Rain,12
2014-2-2,72,58,44,53,47,42,100,74,47,30.15,30.12,30.06,10,5,0,16,5,18,0.00,5,Fog,237
2014-2-3,72,60,48,66,57,40,93,81,68,30.22,30.04,29.96,10,10,2,24,10,33,0.00,6,,217
2014-2-4,48,45,41,43,40,36,92,81,70,30.35,30.23,30.07,10,7,2,18,10,22,0.13,8,Rain,31
2014-2-5,70,57,44,65,53,42,100,84,67,30.05,29.93,29.81,10,5,0,21,6,35,0.18,6,Fog-Rain,243
2014-2-6,52,44,35,42,31,28,80,63,46,30.35,30.23,30.06,10,10,4,17,10,23,T,4,Snow,8
2014-2-7,53,43,32,35,32,29,92,68,44,30.36,30.29,30.25,10,9,4,13,5,17,0.02,2,Rain,24
2014-2-8,49,41,32,39,34,29,96,79,61,30.27,30.19,30.11,10,9,3,14,6,18,0.39,4,Rain,20
2014-2-9,55,43,30,43,36,28,92,71,50,30.21,30.12,30.02,10,8,4,13,4,16,0.00,0,,129
2014-2-10,57,48,39,41,36,30,92,70,47,30.22,30.12,30.03,10,10,2,16,8,20,0.00,3,,46
2014-2-11,40,35,29,33,29,24,92,81,70,30.38,30.28,30.19,10,4,2,21,14,30,0.73,8,Rain,26
2014-2-12,38,34,29,37,29,23,100,89,78,30.34,30.12,29.67,10,4,0,24,15,32,0.63,8,Fog-Rain,25
2014-2-13,39,37,35,36,34,31,100,90,79,29.75,29.56,29.49,10,5,0,26,13,33,0.08,8,Fog-Rain,287
2014-2-14,61,48,34,41,35,30,89,63,37,29.88,29.83,29.75,10,10,7,17,10,21,0.00,0,,227
2014-2-15,54,45,35,48,36,17,83,60,36,30.05,29.74,29.53,10,10,4,32,15,45,0.13,5,Rain,261
2014-2-16,57,43,28,34,26,19,85,57,28,30.17,30.11,30.05,10,10,10,13,3,17,0.00,1,,201
2014-2-17,49,41,33,33,29,25,92,67,42,30.37,30.28,30.15,10,10,7,17,9,22,0.00,2,,65
2014-2-18,71,54,36,46,40,32,89,61,33,30.24,30.17,30.14,10,9,4,16,5,21,0.00,2,,283
2014-2-19,77,61,44,56,49,42,93,67,41,30.13,30.04,29.95,10,8,4,24,10,29,0.00,2,,211
2014-2-20,76,65,53,63,55,44,93,71,49,30.21,30.14,30.10,10,10,9,20,8,25,0.00,2,,178
2014-2-21,78,67,56,67,62,54,93,81,68,30.07,29.96,29.84,10,9,2,35,12,50,0.21,5,Rain-Thunderstorm,203
2014-2-22,68,56,44,54,42,29,100,63,26,30.17,30.09,30.03,10,6,0,18,5,22,0.00,1,Fog,31
2014-2-23,69,55,40,49,41,36,92,61,30,30.12,30.04,29.93,10,9,5,10,2,12,0.00,0,,191
2014-2-24,67,54,41,51,42,32,93,61,29,30.13,30.01,29.90,10,10,5,17,7,22,0.00,0,,319
2014-2-25,74,57,40,52,40,32,89,64,38,30.12,29.99,29.87,10,10,7,23,8,33,0.00,2,Rain,55
2014-2-26,45,41,37,38,35,30,92,77,62,29.96,29.86,29.79,10,8,3,21,7,24,0.18,7,Rain,17
2014-2-27,59,45,30,38,33,28,96,66,36,29.97,29.86,29.79,10,7,2,17,7,22,0.00,0,,296
2014-2-28,52,42,32,36,26,18,92,67,41,30.27,30.18,29.98,10,10,4,21,12,25,0.00,5,,33